РПИ Актобе

РПИ Актобе является структурным подразделением дивизиона VATRUS сети VATSIM.

РПИ осуществляет свою деятельность в границах Актюбинской, Атырауской, Мангистауской и Западно-Казахстанской областей Республики Казахстан.

Схемы и аэронавигационную информацию можно получить на сайте   Казаэронавигация

Средства связи ОВД:

UATT_CTR - Актобе Контроль - 129.600

RU-CEN_FSS - Азия Радар  - 132.850 (РПИ: UACN, UAAA, UAII, UATT, UTAA, UCFM, UTAT, UTDD, UTTRUCFOUTSD, UTAVUTAK)

Руководство

Evgeny Vygornitsky*

Куратор

Dmitriy Bannov

Помощник куратора по Казахстану
Инструкторы РПИ
Evgeny Vygornitsky (Supervisor)
Vitaliy Alekseyev (Instructor)
Входит в состав
Центральная Азия

Диспетчеры РПИ

Диспетчер Рейтинг Допуски *

Аэропорты РПИ

ICAO Город Название Погода
UATT Актобе Актобе UATT 100930Z 12003MPS CAVOK M13/M18 Q1041 NOSIG RMK QFE761/1014
UATG Атырау Атырау UATG 100930Z 13007MPS 6000 NSC M06/M17 Q1038 NOSIG RMK QFE780/1040
UARR Уральск Уральск UARR 100930Z 17008MPS CAVOK M07/M15 Q1037 NOSIG RMK QFE774/1032